NATIONALE - Sud-Est AIX-LES-BAINS (73) - K

Date : 29/05/2011

Place Nom Licence Catégorie Club Temps CN à J-60 Points Différence Nouveau CN
1 BOULESTREAU Zélie 11309 D16 2904BR 0:44:30 5580 4902 -678 6022
2 HUMMEL-AZAIS Margaux 18432 D16 7403RA 0:44:32 4653 4898 +245 5217
3 ROULLEAUX Julie 11559 D16 9105IF 0:50:21 4313 4332 +19 4466
4 DENAIX Lou 7711 D16 7403RA 0:50:51 4432 4290 -142 4798
5 GIRARD Lucille 19689 D16 3705CE 0:50:55 3742 4284 +542 4351
6 DEVRIEUX Naïs 7672 D16 4203RA 0:51:20 4394 4249 -145 4973
7 BONDIVENNE Perrine 8914 D16 6408AQ 0:53:29 3513 4079 +566 4214
8 BODY Mathilde 10184 D16 7305RA 0:57:31 4107 3793 -314 4646
9 FALGA Beatrice 12403 D16 6911RA 0:58:04 2513 3757 +1244 2958
10 LAFARGE Emeline 17418 D16 7403RA 1:00:58 3723 3578 -145 3697
11 VERDIN Alix 15276 D16 7109BO 1:02:07 3457 3512 +55 3734
12 MAISONNEUVE Valentine 16357 D16 4203RA 1:04:50 3797 3365 -432 4499
13 BONORA Marine 11542 D16 6906RA 1:06:45 2344 3268 +924 3480
14 LUTHRINGER Coline 10091 D16 8809LO 1:07:37 3263 3226 -37 3560
15 BORNARD Julie 9402 D16 7305RA 1:08:19 3166 3193 +27 3334
16 MOUYON Elisa 20101 D16 2606RA 1:10:03 3881 3114 -767 3652
17 MORLON Louise 7788 D16 5702LO 1:12:54 3718 2992 -726 3780
18 BASSET Fiona 23384 D16 6911RA 1:13:05 2394 2985 +591 2734
19 MAIRE Candice 20170 D16 8807LO 1:13:59 3021 2948 -73 3170
20 PETER-JAN Lucile 19276 D16 3705CE 1:14:55 3678 2912 -766 4024
21 MAGNON Robin 18257 H16 1307PR 1:21:58 2909 2661 -248 3261
22 CAMAS Mandye 19238 D16 5907NO 1:24:12 3774 2591 -1183 4464
23 BESTEL Sandra 10758 D16 9105IF 1:27:48 2913 2484 -429 3032
24 RIVOLLIER Isaline 22451 D16 4201RA 1:38:42 2530 2210 -320 3346
25 HABAUZIT Quentin 23281 H16 2606RA 1:48:24 2484 2012 -472 3011
HABERKORN Chloé 10396 D16 2105BO abandon 4277 0 5340